Time;durP1;ratioP1;P1;durP2;ratioP2;P2;SDS_P1;SDS_P2;PMS_P1;PMS_P2;Temp;Humidity;BMP_temperature;BMP_pressure;BME280_temperature;BME280_humidity;BME280_pressure;Samples;Min_cycle;Max_cycle;Signal;HPM_P1;HPM_P2
2021/12/11 00:02:11;;;;;;;1.67;1.33;;;2.20;99.90;;;;;;5054372;28;20528;-70
2021/12/11 00:04:41;;;;;;;0.63;0.50;;;2.20;99.90;;;;;;5053755;28;20398;-70
2021/12/11 00:07:11;;;;;;;0.77;0.77;;;2.20;99.90;;;;;;5053899;28;20401;-71
2021/12/11 00:10:09;;;;;;;0.60;0.50;;;2.20;99.90;;;;;;5054105;28;20925;-71
2021/12/11 00:12:47;;;;;;;0.60;0.40;;;2.30;99.90;;;;;;5030513;28;20837;-70
2021/12/11 00:15:22;;;;;;;1.37;0.90;;;2.30;99.90;;;;;;5053810;28;20414;-71
2021/12/11 00:17:49;;;;;;;0.70;0.50;;;2.20;99.90;;;;;;5054098;28;20946;-70
2021/12/11 00:20:26;;;;;;;1.83;1.73;;;2.20;99.90;;;;;;5054003;28;20396;-71
2021/12/11 00:22:53;;;;;;;3.57;2.50;;;2.30;99.90;;;;;;5053965;28;20421;-70
2021/12/11 00:25:19;;;;;;;0.70;0.60;;;2.30;99.90;;;;;;5053212;28;20431;-68
2021/12/11 00:27:48;;;;;;;0.60;0.40;;;2.20;99.90;;;;;;5054001;28;20404;-71
2021/12/11 00:30:31;;;;;;;0.93;0.80;;;2.20;99.90;;;;;;5053713;28;20393;-71
2021/12/11 00:33:04;;;;;;;1.27;1.17;;;2.20;99.90;;;;;;5053603;28;20439;-71
2021/12/11 00:35:30;;;;;;;0.70;0.67;;;2.20;99.90;;;;;;5053126;28;20765;-69
2021/12/11 00:38:05;;;;;;;1.47;1.37;;;2.20;99.90;;;;;;5053621;28;20420;-69
2021/12/11 00:40:31;;;;;;;0.60;0.40;;;2.20;99.90;;;;;;5053477;28;20419;-69
2021/12/11 00:43:03;;;;;;;2.50;0.93;;;2.20;99.90;;;;;;5053316;28;20425;-70
2021/12/11 00:45:36;;;;;;;0.73;0.73;;;2.20;99.90;;;;;;5053130;28;20408;-70
2021/12/11 00:48:10;;;;;;;8.63;1.87;;;2.20;99.90;;;;;;5053550;28;20860;-70
2021/12/11 00:50:40;;;;;;;3.07;2.87;;;2.20;99.90;;;;;;5052075;28;20414;-69
2021/12/11 00:53:27;;;;;;;2.10;2.00;;;2.20;99.90;;;;;;5053355;28;20447;-70
2021/12/11 00:56:00;;;;;;;1.37;0.90;;;2.20;99.90;;;;;;5053031;28;20483;-70
2021/12/11 00:58:29;;;;;;;0.60;0.40;;;2.20;99.90;;;;;;5052883;28;20393;-70
2021/12/11 01:01:11;;;;;;;6.43;1.60;;;2.10;99.90;;;;;;5053146;28;20428;-70
2021/12/11 01:03:55;;;;;;;0.70;0.47;;;2.10;99.90;;;;;;5053171;28;20462;-70
2021/12/11 01:06:26;;;;;;;0.60;0.50;;;2.10;99.90;;;;;;5052746;28;20406;-70
2021/12/11 01:09:17;;;;;;;1.23;0.70;;;2.20;99.90;;;;;;5053117;28;20397;-70
2021/12/11 01:12:12;;;;;;;0.80;0.77;;;2.20;99.90;;;;;;5050832;28;20441;-70
2021/12/11 01:14:54;;;;;;;0.70;0.50;;;2.30;99.90;;;;;;5052773;28;20460;-70
2021/12/11 01:17:41;;;;;;;1.20;1.10;;;2.40;99.90;;;;;;5052803;28;20409;-70
2021/12/11 01:20:19;;;;;;;0.63;0.50;;;2.40;99.90;;;;;;5052786;28;20442;-70
2021/12/11 01:22:46;;;;;;;0.70;0.40;;;2.40;99.90;;;;;;5052683;28;20432;-70
2021/12/11 01:25:27;;;;;;;0.70;0.50;;;2.60;99.90;;;;;;5052476;28;20409;-70
2021/12/11 01:27:59;;;;;;;0.67;0.57;;;2.60;99.90;;;;;;5051147;28;20420;-70
2021/12/11 01:30:31;;;;;;;2.30;1.73;;;2.60;99.90;;;;;;5050769;28;20413;-70
2021/12/11 01:32:57;;;;;;;1.30;1.23;;;2.70;99.90;;;;;;5051846;28;20425;-70
2021/12/11 01:35:23;;;;;;;0.70;0.63;;;2.70;99.90;;;;;;5052318;28;20406;-70
2021/12/11 01:37:58;;;;;;;1.87;1.57;;;2.70;99.90;;;;;;5052520;28;20448;-70
2021/12/11 01:40:27;;;;;;;0.70;0.67;;;2.70;99.90;;;;;;5052326;28;20503;-70
2021/12/11 01:42:53;;;;;;;0.70;0.50;;;2.70;99.90;;;;;;5051049;28;20448;-70
2021/12/11 01:45:19;;;;;;;1.73;1.13;;;2.70;99.90;;;;;;5067625;28;20422;-70
2021/12/11 01:47:47;;;;;;;1.07;1.07;;;2.80;99.90;;;;;;5052258;28;20727;-70
2021/12/11 01:50:27;;;;;;;0.60;0.50;;;2.80;99.90;;;;;;5052414;28;20440;-70
2021/12/11 01:53:23;;;;;;;2.80;1.60;;;2.80;99.90;;;;;;5051993;28;20429;-70
2021/12/11 01:55:59;;;;;;;1.00;1.00;;;2.80;99.90;;;;;;5051205;28;20490;-70
2021/12/11 01:58:38;;;;;;;0.60;0.40;;;2.80;99.90;;;;;;5052086;28;20401;-70
2021/12/11 02:01:11;;;;;;;0.70;0.50;;;2.80;99.90;;;;;;5052036;28;20431;-70
2021/12/11 02:03:37;;;;;;;2.07;1.07;;;2.80;99.90;;;;;;5051995;28;20991;-70
2021/12/11 02:06:04;;;;;;;0.60;0.40;;;2.80;99.90;;;;;;5051826;28;20417;-70
2021/12/11 02:08:34;;;;;;;0.70;0.70;;;2.80;99.90;;;;;;5052000;28;20423;-70
2021/12/11 02:11:05;;;;;;;0.60;0.50;;;2.80;99.90;;;;;;5051119;28;20507;-70
2021/12/11 02:13:40;;;;;;;2.10;0.87;;;2.80;99.90;;;;;;5051839;28;20445;-70
2021/12/11 02:16:14;;;;;;;0.60;0.43;;;2.80;99.90;;;;;;5051759;28;20397;-70
2021/12/11 02:18:44;;;;;;;0.60;0.50;;;2.80;99.90;;;;;;5051948;28;20436;-70
2021/12/11 02:21:19;;;;;;;1.47;1.37;;;2.80;99.90;;;;;;5051855;28;20419;-70
2021/12/11 02:24:01;;;;;;;1.73;1.63;;;2.80;99.90;;;;;;5051885;28;20423;-70
2021/12/11 02:26:29;;;;;;;0.70;0.63;;;2.80;99.90;;;;;;5051674;28;20416;-70
2021/12/11 02:29:09;;;;;;;0.80;0.80;;;2.80;99.90;;;;;;5067225;28;20417;-70
2021/12/11 02:31:46;;;;;;;1.10;0.97;;;2.80;99.90;;;;;;5051794;28;20802;-70
2021/12/11 02:34:14;;;;;;;0.70;0.57;;;2.80;99.90;;;;;;5051794;28;20455;-70
2021/12/11 02:36:47;;;;;;;0.70;0.50;;;2.70;99.90;;;;;;5051388;28;20444;-70
2021/12/11 02:39:13;;;;;;;0.60;0.50;;;2.70;99.90;;;;;;5051851;28;20405;-70
2021/12/11 02:41:49;;;;;;;0.80;0.80;;;2.70;99.90;;;;;;5051596;28;20911;-70
2021/12/11 02:44:24;;;;;;;0.70;0.60;;;2.70;99.90;;;;;;5051719;28;20176;-70
2021/12/11 02:47:01;;;;;;;0.60;0.50;;;2.70;99.90;;;;;;5051376;28;20412;-70
2021/12/11 02:49:36;;;;;;;2.73;1.13;;;2.60;99.90;;;;;;5051699;28;20537;-70
2021/12/11 02:52:09;;;;;;;1.77;0.97;;;2.60;99.90;;;;;;5051608;28;20436;-70
2021/12/11 02:54:43;;;;;;;0.60;0.50;;;2.70;99.90;;;;;;5051406;28;20452;-70
2021/12/11 02:57:17;;;;;;;1.17;1.10;;;2.70;99.90;;;;;;5051282;28;20415;-70
2021/12/11 02:59:45;;;;;;;0.70;0.60;;;2.70;99.90;;;;;;5051603;28;20392;-70
2021/12/11 03:02:24;;;;;;;1.90;1.80;;;2.70;99.90;;;;;;5051440;28;20955;-70
2021/12/11 03:04:55;;;;;;;1.13;1.00;;;2.80;99.90;;;;;;5051390;28;20531;-70
2021/12/11 03:07:24;;;;;;;1.63;1.13;;;2.80;99.90;;;;;;5051535;28;20490;-70
2021/12/11 03:09:56;;;;;;;0.70;0.60;;;2.80;99.90;;;;;;5051413;28;20767;-70
2021/12/11 03:12:23;;;;;;;0.70;0.50;;;2.80;99.90;;;;;;5051215;28;20422;-70
2021/12/11 03:14:49;;;;;;;0.60;0.50;;;2.90;99.90;;;;;;5066505;28;20461;-70
2021/12/11 03:17:17;;;;;;;0.70;0.50;;;2.80;99.90;;;;;;5051276;28;20747;-70
2021/12/11 03:19:45;;;;;;;1.37;0.63;;;2.90;99.90;;;;;;5051172;28;20496;-70
2021/12/11 03:22:16;;;;;;;1.47;1.37;;;2.90;99.90;;;;;;5052419;28;20519;-70
2021/12/11 03:24:42;;;;;;;0.63;0.50;;;2.80;99.90;;;;;;5055150;28;20412;-70
2021/12/11 03:27:08;;;;;;;0.70;0.60;;;2.90;99.90;;;;;;5054687;28;20530;-70
2021/12/11 03:29:34;;;;;;;0.60;0.50;;;2.80;99.90;;;;;;5070442;28;20178;-70
2021/12/11 03:32:01;;;;;;;0.83;0.83;;;2.90;99.90;;;;;;5054769;28;20417;-70
2021/12/11 03:34:28;;;;;;;0.60;0.50;;;2.90;99.90;;;;;;5054912;28;20799;-70
2021/12/11 03:36:55;;;;;;;5.80;2.03;;;2.90;99.90;;;;;;5054460;28;20802;-70
2021/12/11 03:39:26;;;;;;;2.10;0.93;;;2.80;99.90;;;;;;5053493;28;20451;-70
2021/12/11 03:41:54;;;;;;;0.60;0.50;;;2.90;99.90;;;;;;5054541;28;20420;-70
2021/12/11 03:44:20;;;;;;;1.90;1.07;;;2.80;99.90;;;;;;5054685;28;20407;-70
2021/12/11 03:46:49;;;;;;;1.67;1.57;;;2.90;99.90;;;;;;5054398;28;20405;-70
2021/12/11 03:49:17;;;;;;;2.13;1.30;;;2.90;99.90;;;;;;5054429;28;20444;-70
2021/12/11 03:51:47;;;;;;;3.43;1.33;;;2.90;99.90;;;;;;5054471;28;20437;-70
2021/12/11 03:54:16;;;;;;;1.53;1.47;;;2.90;99.90;;;;;;5054399;28;20502;-70
2021/12/11 03:56:42;;;;;;;0.70;0.60;;;2.80;99.90;;;;;;5069493;28;20470;-70
2021/12/11 03:59:10;;;;;;;2.10;1.37;;;2.90;99.90;;;;;;5054341;28;20427;-70
2021/12/11 04:01:46;;;;;;;0.60;0.50;;;2.90;99.90;;;;;;5054393;28;20512;-70
2021/12/11 04:04:28;;;;;;;0.60;0.50;;;2.90;99.90;;;;;;5054334;28;20416;-70
2021/12/11 04:06:55;;;;;;;1.13;1.03;;;2.80;99.90;;;;;;5054007;28;20432;-70
2021/12/11 04:09:21;;;;;;;0.70;0.60;;;2.80;99.90;;;;;;5069631;28;20467;-70
2021/12/11 04:11:49;;;;;;;0.90;0.70;;;2.80;99.90;;;;;;5054102;28;20471;-70
2021/12/11 04:14:19;;;;;;;1.73;1.43;;;2.80;99.90;;;;;;5053868;28;20449;-70
2021/12/11 04:16:45;;;;;;;4.93;1.27;;;2.80;99.90;;;;;;5053858;28;20486;-70
2021/12/11 04:19:12;;;;;;;1.87;1.17;;;2.80;99.90;;;;;;5053994;28;20492;-70
2021/12/11 04:21:39;;;;;;;1.00;0.90;;;2.80;99.90;;;;;;5053965;28;20459;-70
2021/12/11 04:24:08;;;;;;;1.07;0.97;;;2.80;99.90;;;;;;5053814;28;20414;-70
2021/12/11 04:26:35;;;;;;;0.60;0.50;;;2.80;99.90;;;;;;5053665;28;20413;-70
2021/12/11 04:29:01;;;;;;;0.70;0.60;;;2.90;99.90;;;;;;5053746;28;20779;-70
2021/12/11 04:31:31;;;;;;;2.10;2.00;;;2.90;99.90;;;;;;5053811;28;20440;-70
2021/12/11 04:34:02;;;;;;;0.60;0.50;;;2.90;99.90;;;;;;5052869;28;21182;-70
2021/12/11 04:36:34;;;;;;;1.93;1.83;;;2.90;99.90;;;;;;5053426;28;20408;-70
2021/12/11 04:39:03;;;;;;;6.00;2.67;;;3.00;99.90;;;;;;5053656;28;20424;-70
2021/12/11 04:41:39;;;;;;;1.33;1.23;;;3.00;99.90;;;;;;5053546;28;20418;-70
2021/12/11 04:44:10;;;;;;;1.20;1.10;;;3.00;99.90;;;;;;5053674;28;20834;-70
2021/12/11 04:46:35;;;;;;;0.70;0.60;;;3.00;99.90;;;;;;5068685;28;20455;-70
2021/12/11 04:49:15;;;;;;;1.60;1.40;;;3.10;99.90;;;;;;5053425;28;20413;-70
2021/12/11 04:54:46;;;;;;;3.87;1.23;;;3.10;99.90;;;;;;5053233;28;20556;-70
2021/12/11 05:00:09;;;;;;;3.87;3.03;;;3.10;99.90;;;;;;5053607;28;20774;-71
2021/12/11 05:05:30;;;;;;;2.43;1.53;;;3.10;99.90;;;;;;5052927;28;20767;-70
2021/12/11 05:10:56;;;;;;;23.97;2.30;;;3.10;99.90;;;;;;5011794;28;20415;-70
2021/12/11 05:13:24;;;;;;;0.77;0.77;;;3.10;99.90;;;;;;5068381;28;20483;-70
2021/12/11 05:15:53;;;;;;;1.47;1.40;;;3.20;99.90;;;;;;5052621;28;20491;-70
2021/12/11 05:18:23;;;;;;;0.60;0.50;;;3.20;99.90;;;;;;5052975;28;20499;-70
2021/12/11 05:20:53;;;;;;;0.80;0.80;;;3.20;99.90;;;;;;5052821;28;20408;-70
2021/12/11 05:23:19;;;;;;;2.40;0.73;;;3.30;99.90;;;;;;5052737;28;20409;-70
2021/12/11 05:25:46;;;;;;;0.97;0.97;;;3.20;99.90;;;;;;5067818;28;20759;-70
2021/12/11 05:28:12;;;;;;;2.93;2.73;;;3.20;99.90;;;;;;5052819;28;20405;-70
2021/12/11 05:30:42;;;;;;;0.70;0.50;;;3.20;99.90;;;;;;5051307;28;20427;-71
2021/12/11 05:33:08;;;;;;;0.70;0.50;;;3.30;99.90;;;;;;5052520;28;20510;-70
2021/12/11 05:35:37;;;;;;;0.90;0.90;;;3.30;99.90;;;;;;5052310;28;20903;-70
2021/12/11 05:38:06;;;;;;;2.33;2.23;;;3.30;99.90;;;;;;5052305;28;20263;-70
2021/12/11 05:40:35;;;;;;;0.60;0.50;;;3.30;99.90;;;;;;5052571;28;20413;-70
2021/12/11 05:43:01;;;;;;;0.97;0.87;;;3.30;99.90;;;;;;5052493;28;20402;-70
2021/12/11 05:45:26;;;;;;;2.13;2.03;;;3.30;99.90;;;;;;5052007;28;20411;-70
2021/12/11 05:47:55;;;;;;;1.83;1.73;;;3.40;99.90;;;;;;5052131;28;20804;-70
2021/12/11 05:50:26;;;;;;;2.20;2.10;;;3.40;99.90;;;;;;5052256;28;20412;-70
2021/12/11 05:52:53;;;;;;;3.57;3.23;;;3.40;99.90;;;;;;5052217;28;20837;-71
2021/12/11 05:55:21;;;;;;;10.13;1.17;;;3.40;99.90;;;;;;5051931;28;20432;-70
2021/12/11 05:57:53;;;;;;;2.20;2.10;;;3.40;99.90;;;;;;5052266;28;20444;-70
2021/12/11 06:00:24;;;;;;;21.53;3.00;;;3.30;99.90;;;;;;5050949;28;20767;-70
2021/12/11 06:02:49;;;;;;;0.60;0.50;;;3.30;99.90;;;;;;5052019;28;20861;-70
2021/12/11 06:05:15;;;;;;;15.63;3.13;;;3.30;99.90;;;;;;5051943;28;20415;-70
2021/12/11 06:07:43;;;;;;;1.80;1.63;;;3.30;99.90;;;;;;5052044;28;20163;-70
2021/12/11 06:10:13;;;;;;;0.63;0.47;;;3.30;99.90;;;;;;5052069;28;20170;-70
2021/12/11 06:12:39;;;;;;;0.80;0.80;;;3.30;99.90;;;;;;5051891;28;20436;-70
2021/12/11 06:15:06;;;;;;;1.60;1.10;;;3.30;99.90;;;;;;5051564;28;20452;-70
2021/12/11 06:17:34;;;;;;;1.63;1.53;;;3.30;99.90;;;;;;5051995;28;20178;-70
2021/12/11 06:20:02;;;;;;;0.70;0.50;;;3.30;99.90;;;;;;5051875;28;20409;-70
2021/12/11 06:22:31;;;;;;;1.27;1.17;;;3.30;99.90;;;;;;5051653;28;20436;-70
2021/12/11 06:25:04;;;;;;;2.90;1.17;;;3.30;99.90;;;;;;5051892;28;20954;-70
2021/12/11 06:27:30;;;;;;;4.47;3.70;;;3.40;99.90;;;;;;5051943;28;20400;-70
2021/12/11 06:29:56;;;;;;;0.63;0.53;;;3.30;99.90;;;;;;5051728;28;20410;-70
2021/12/11 06:32:23;;;;;;;2.23;2.13;;;3.30;99.90;;;;;;5051840;28;20455;-70
2021/12/11 06:34:50;;;;;;;2.60;0.93;;;3.40;99.90;;;;;;5051407;28;20659;-70
2021/12/11 06:37:16;;;;;;;0.60;0.40;;;3.40;99.90;;;;;;5051696;28;20420;-70
2021/12/11 06:39:42;;;;;;;1.00;1.00;;;3.40;99.90;;;;;;5051689;28;20415;-70
2021/12/11 06:42:09;;;;;;;3.50;3.30;;;3.40;99.90;;;;;;5051758;28;20452;-70
2021/12/11 06:44:36;;;;;;;1.63;1.53;;;3.40;99.90;;;;;;5050387;28;20444;-70
2021/12/11 06:47:05;;;;;;;0.70;0.60;;;3.50;99.90;;;;;;5051419;28;20475;-70
2021/12/11 06:49:33;;;;;;;0.70;0.50;;;3.60;99.90;;;;;;5051535;28;20444;-70
2021/12/11 06:51:59;;;;;;;3.07;2.83;;;3.60;99.90;;;;;;5051444;28;20508;-70
2021/12/11 06:54:25;;;;;;;1.40;1.30;;;3.70;99.90;;;;;;5051542;28;20445;-70
2021/12/11 06:56:53;;;;;;;1.00;0.90;;;3.70;99.90;;;;;;5052073;28;20917;-70
2021/12/11 06:59:20;;;;;;;1.70;1.60;;;3.70;99.90;;;;;;5055579;28;20417;-70
2021/12/11 07:01:46;;;;;;;0.70;0.60;;;3.80;99.90;;;;;;5070835;28;20433;-70
2021/12/11 07:04:12;;;;;;;1.30;0.80;;;3.80;99.90;;;;;;5055487;28;20420;-70
2021/12/11 07:06:41;;;;;;;1.43;0.80;;;3.80;99.90;;;;;;5053823;28;20266;-70
2021/12/11 07:09:11;;;;;;;1.13;0.87;;;3.80;99.90;;;;;;5055447;28;20413;-70
2021/12/11 07:11:42;;;;;;;0.70;0.70;;;3.80;99.90;;;;;;5055200;28;20432;-70
2021/12/11 07:14:09;;;;;;;0.70;0.60;;;3.70;99.90;;;;;;5055257;28;20455;-70
2021/12/11 07:16:35;;;;;;;6.73;1.63;;;3.70;99.90;;;;;;5054966;28;20416;-70
2021/12/11 07:19:03;;;;;;;0.80;0.80;;;3.70;99.90;;;;;;5055073;28;20409;-70
2021/12/11 07:21:30;;;;;;;1.43;0.80;;;3.60;99.90;;;;;;5054776;28;20435;-70
2021/12/11 07:23:56;;;;;;;10.23;1.90;;;3.60;99.90;;;;;;5055100;28;20416;-70
2021/12/11 07:26:31;;;;;;;1.80;1.70;;;3.70;99.90;;;;;;5054708;28;20445;-70
2021/12/11 07:29:01;;;;;;;1.37;1.27;;;3.60;99.90;;;;;;5070510;28;20418;-70
2021/12/11 07:31:27;;;;;;;1.13;1.03;;;3.70;99.90;;;;;;5054838;28;20442;-70
2021/12/11 07:33:53;;;;;;;0.70;0.50;;;3.70;99.90;;;;;;5054860;28;20453;-70
2021/12/11 07:36:20;;;;;;;2.77;2.57;;;3.80;99.90;;;;;;5054534;28;20171;-70
2021/12/11 07:38:45;;;;;;;0.80;0.80;;;3.80;99.90;;;;;;5054686;28;20462;-70
2021/12/11 07:41:13;;;;;;;1.43;1.33;;;3.90;99.90;;;;;;5054712;28;20909;-70
2021/12/11 07:43:41;;;;;;;0.70;0.70;;;4.00;99.90;;;;;;5054760;28;20288;-70
2021/12/11 07:46:09;;;;;;;0.80;0.80;;;4.00;99.90;;;;;;5054325;28;20455;-70
2021/12/11 07:48:35;;;;;;;2.87;1.50;;;4.10;99.90;;;;;;5069941;28;20910;-72
2021/12/11 07:51:01;;;;;;;4.50;1.77;;;4.00;99.90;;;;;;5054374;28;20436;-71
2021/12/11 07:53:26;;;;;;;1.23;1.13;;;4.00;99.90;;;;;;5054539;28;20203;-70
2021/12/11 07:55:53;;;;;;;1.27;1.27;;;3.90;99.90;;;;;;5054023;28;20428;-70
2021/12/11 07:58:20;;;;;;;0.60;0.50;;;3.90;99.90;;;;;;5054524;28;20502;-70
2021/12/11 08:00:46;;;;;;;2.00;1.90;;;3.90;99.90;;;;;;5069954;28;20475;-71
2021/12/11 08:03:13;;;;;;;0.60;0.50;;;3.90;99.90;;;;;;5054258;28;20401;-70
2021/12/11 08:05:41;;;;;;;3.57;2.30;;;4.00;99.90;;;;;;5054052;28;20504;-70
2021/12/11 08:08:09;;;;;;;0.70;0.67;;;4.00;99.90;;;;;;5053392;28;20886;-70
2021/12/11 08:10:38;;;;;;;1.73;1.63;;;3.90;99.90;;;;;;5054012;28;20412;-70
2021/12/11 08:13:05;;;;;;;0.70;0.50;;;3.90;99.90;;;;;;5069436;28;20436;-70
2021/12/11 08:15:31;;;;;;;1.83;1.73;;;3.90;99.90;;;;;;5053792;28;20412;-70
2021/12/11 08:17:58;;;;;;;0.67;0.57;;;3.90;99.90;;;;;;5053041;28;20410;-70
2021/12/11 08:20:29;;;;;;;0.80;0.80;;;3.80;99.90;;;;;;5054180;28;20420;-70
2021/12/11 08:22:55;;;;;;;0.60;0.50;;;3.90;99.90;;;;;;5054110;28;20432;-70
2021/12/11 08:25:25;;;;;;;0.67;0.57;;;3.90;99.90;;;;;;5053905;28;20412;-70
2021/12/11 08:27:52;;;;;;;1.23;1.13;;;3.90;99.90;;;;;;5054158;28;20410;-70
2021/12/11 08:30:18;;;;;;;0.70;0.60;;;4.00;99.90;;;;;;5053962;28;20413;-71
2021/12/11 08:32:44;;;;;;;1.30;0.90;;;4.10;99.90;;;;;;5053614;28;20930;-71
2021/12/11 08:35:12;;;;;;;4.83;0.83;;;4.20;99.90;;;;;;5053361;28;20838;-70
2021/12/11 08:37:41;;;;;;;3.10;1.23;;;4.10;99.90;;;;;;5053746;28;20413;-71
2021/12/11 08:40:12;;;;;;;5.57;3.17;;;4.10;99.90;;;;;;5069145;28;20540;-70
2021/12/11 08:42:39;;;;;;;1.40;1.30;;;4.20;99.90;;;;;;5052357;28;20440;-71
2021/12/11 08:45:10;;;;;;;0.60;0.43;;;4.20;99.90;;;;;;5053353;28;20412;-71
2021/12/11 08:47:40;;;;;;;3.77;3.47;;;4.20;99.90;;;;;;5053594;28;20413;-71
2021/12/11 08:50:09;;;;;;;0.60;0.50;;;4.20;99.90;;;;;;5053453;28;20413;-71
2021/12/11 08:52:39;;;;;;;1.43;1.33;;;4.20;99.90;;;;;;5053391;28;20438;-70
2021/12/11 08:55:09;;;;;;;5.27;2.90;;;4.20;99.90;;;;;;5052948;28;20456;-71
2021/12/11 08:57:38;;;;;;;1.00;1.00;;;4.30;99.90;;;;;;5053439;28;20417;-70
2021/12/11 09:00:19;;;;;;;0.63;0.50;;;4.20;99.90;;;;;;5053327;28;20842;-70
2021/12/11 09:02:51;;;;;;;2.40;2.30;;;4.10;99.90;;;;;;5053150;28;20950;-71
2021/12/11 09:05:46;;;;;;;2.60;2.40;;;4.10;99.90;;;;;;5052968;28;20401;-71
2021/12/11 09:08:38;;;;;;;0.70;0.67;;;4.10;99.90;;;;;;5052609;28;20422;-70
2021/12/11 09:11:09;;;;;;;1.37;1.27;;;4.20;99.90;;;;;;5053111;28;20862;-70
2021/12/11 09:13:44;;;;;;;0.70;0.60;;;4.20;99.90;;;;;;5051772;28;20547;-71
2021/12/11 09:16:17;;;;;;;2.40;2.30;;;4.20;99.90;;;;;;5052744;28;20400;-70
2021/12/11 09:18:49;;;;;;;0.70;0.50;;;4.30;99.90;;;;;;5052868;28;20405;-70
2021/12/11 09:21:25;;;;;;;1.00;1.00;;;4.30;99.90;;;;;;5052233;28;20433;-70
2021/12/11 09:24:20;;;;;;;4.60;1.23;;;4.40;99.90;;;;;;5052920;28;20501;-71
2021/12/11 09:26:59;;;;;;;0.60;0.40;;;4.40;99.90;;;;;;5067280;28;20426;-70
2021/12/11 09:29:31;;;;;;;0.60;0.60;;;4.40;99.90;;;;;;5052696;28;20405;-70
2021/12/11 09:32:07;;;;;;;0.97;0.80;;;4.30;99.90;;;;;;5052588;28;20841;-71
2021/12/11 09:34:55;;;;;;;1.17;0.93;;;4.30;99.90;;;;;;5052470;28;20489;-70
2021/12/11 09:37:21;;;;;;;0.70;0.50;;;4.30;99.90;;;;;;5051842;28;20430;-70
2021/12/11 09:39:58;;;;;;;1.97;1.83;;;4.30;99.90;;;;;;5052378;28;20886;-70
2021/12/11 09:42:23;;;;;;;1.37;1.33;;;4.50;99.90;;;;;;5052358;28;20963;-70
2021/12/11 09:44:54;;;;;;;0.60;0.50;;;4.60;99.90;;;;;;5052050;28;20409;-70
2021/12/11 09:47:22;;;;;;;0.70;0.50;;;4.70;99.90;;;;;;5052301;28;20185;-70
2021/12/11 09:49:56;;;;;;;0.80;0.80;;;4.90;99.90;;;;;;5052391;28;20409;-70
2021/12/11 09:52:23;;;;;;;4.60;2.47;;;4.90;99.90;;;;;;5051036;28;20992;-71
2021/12/11 09:55:03;;;;;;;0.90;0.73;;;4.90;99.90;;;;;;5051912;28;20491;-70
2021/12/11 09:57:33;;;;;;;0.70;0.60;;;4.90;99.90;;;;;;5052378;28;20925;-70
2021/12/11 10:00:04;;;;;;;0.60;0.47;;;4.90;99.90;;;;;;5052242;28;20488;-70
2021/12/11 10:02:32;;;;;;;0.73;0.63;;;4.90;99.90;;;;;;5052019;28;20425;-70
2021/12/11 10:05:04;;;;;;;5.03;1.90;;;4.90;99.90;;;;;;5051890;28;20441;-71
2021/12/11 10:07:37;;;;;;;1.40;1.30;;;4.90;99.90;;;;;;5052156;28;20405;-71
2021/12/11 10:10:19;;;;;;;0.70;0.50;;;4.80;99.90;;;;;;5052198;28;20448;-72
2021/12/11 10:12:50;;;;;;;0.63;0.50;;;4.70;99.90;;;;;;5051942;28;20789;-69
2021/12/11 10:15:26;;;;;;;2.57;2.40;;;4.80;99.90;;;;;;5067003;28;20460;-71
2021/12/11 10:18:03;;;;;;;2.40;1.90;;;4.90;99.90;;;;;;5052230;28;20406;-70
2021/12/11 10:20:34;;;;;;;1.53;1.43;;;5.00;99.90;;;;;;5051985;28;20447;-70
2021/12/11 10:23:02;;;;;;;0.60;0.50;;;5.10;99.90;;;;;;5051895;28;20500;-69
2021/12/11 10:25:33;;;;;;;0.93;0.93;;;5.20;99.90;;;;;;5050194;28;20433;-70
2021/12/11 10:28:08;;;;;;;1.00;0.90;;;5.30;99.90;;;;;;5051958;28;20413;-69
2021/12/11 10:30:41;;;;;;;1.57;1.23;;;5.40;99.90;;;;;;5067174;28;20413;-69
2021/12/11 10:33:07;;;;;;;0.70;0.60;;;5.50;99.90;;;;;;5051294;28;20801;-70
2021/12/11 10:35:38;;;;;;;0.70;0.60;;;5.60;99.90;;;;;;5066864;28;20456;-70
2021/12/11 10:38:06;;;;;;;0.70;0.70;;;5.60;99.90;;;;;;5051870;28;20575;-70
2021/12/11 10:40:44;;;;;;;3.97;1.60;;;5.60;99.90;;;;;;5050295;28;20489;-71
2021/12/11 10:43:13;;;;;;;0.67;0.50;;;5.60;99.90;;;;;;5067146;28;20451;-69
2021/12/11 10:45:40;;;;;;;0.80;0.70;;;5.60;99.90;;;;;;5051393;28;20409;-70
2021/12/11 10:48:09;;;;;;;0.60;0.50;;;5.60;99.90;;;;;;5050509;28;20512;-70
2021/12/11 10:50:43;;;;;;;0.60;0.40;;;5.60;99.90;;;;;;5051550;28;20405;-70
2021/12/11 10:53:12;;;;;;;0.83;0.80;;;5.60;99.90;;;;;;5051511;28;20872;-69
2021/12/11 10:55:40;;;;;;;2.00;1.90;;;5.70;99.90;;;;;;5051150;28;20437;-70
2021/12/11 10:58:13;;;;;;;1.17;1.10;;;5.90;99.90;;;;;;5051627;28;20412;-70
2021/12/11 11:00:43;;;;;;;16.10;3.63;;;5.90;99.90;;;;;;5051413;28;20416;-70
2021/12/11 11:03:09;;;;;;;0.70;0.60;;;6.00;99.90;;;;;;5051687;28;20774;-69
2021/12/11 11:05:36;;;;;;;0.80;0.77;;;6.10;99.90;;;;;;5051256;28;20401;-70
2021/12/11 11:08:06;;;;;;;5.23;3.33;;;6.20;99.90;;;;;;5051569;28;20500;-70
2021/12/11 11:10:35;;;;;;;0.70;0.70;;;6.20;99.90;;;;;;5050229;28;20829;-70
2021/12/11 11:13:04;;;;;;;0.70;0.67;;;6.40;99.90;;;;;;5051403;28;20493;-70
2021/12/11 11:15:31;;;;;;;0.70;0.50;;;6.50;99.90;;;;;;5051072;28;20451;-70
2021/12/11 11:17:57;;;;;;;0.63;0.40;;;6.70;99.90;;;;;;5051332;28;20406;-70
2021/12/11 11:20:32;;;;;;;1.50;1.40;;;6.80;99.90;;;;;;5051357;28;20394;-70
2021/12/11 11:22:59;;;;;;;1.53;0.83;;;6.80;99.90;;;;;;5051294;28;20408;-70
2021/12/11 11:25:33;;;;;;;0.70;0.70;;;6.90;99.90;;;;;;5051123;28;20385;-70
2021/12/11 11:28:04;;;;;;;0.83;0.70;;;6.90;99.90;;;;;;5051465;28;20492;-69
2021/12/11 11:30:34;;;;;;;0.60;0.50;;;6.80;99.90;;;;;;5051351;28;20739;-70
2021/12/11 11:33:02;;;;;;;0.63;0.40;;;6.90;99.90;;;;;;5051449;28;20473;-70
2021/12/11 11:35:31;;;;;;;0.70;0.60;;;6.90;99.90;;;;;;5051024;28;20413;-70
2021/12/11 11:37:59;;;;;;;0.80;0.70;;;7.00;99.90;;;;;;5051317;28;20393;-70
2021/12/11 11:40:30;;;;;;;6.63;2.77;;;7.00;99.90;;;;;;5027736;28;20423;-70
2021/12/11 11:42:59;;;;;;;0.93;0.70;;;7.10;99.90;;;;;;5012417;28;20950;-69
2021/12/11 11:45:26;;;;;;;0.60;0.40;;;7.20;99.90;;;;;;5013468;28;20473;-70
2021/12/11 11:47:54;;;;;;;0.70;0.60;;;7.20;99.90;;;;;;5014896;28;20410;-70
2021/12/11 11:50:23;;;;;;;0.70;0.70;;;7.30;99.90;;;;;;5015037;28;20414;-70
2021/12/11 11:52:49;;;;;;;1.50;1.23;;;7.30;99.90;;;;;;5014769;28;20962;-70
2021/12/11 11:55:21;;;;;;;1.33;1.23;;;7.40;99.90;;;;;;5014414;28;20551;-70
2021/12/11 11:57:49;;;;;;;1.87;1.77;;;7.50;99.90;;;;;;5014860;28;20637;-70
2021/12/11 12:00:19;;;;;;;0.63;0.50;;;7.60;99.90;;;;;;5014769;28;20406;-70
2021/12/11 12:02:46;;;;;;;0.70;0.50;;;7.70;99.90;;;;;;5014725;28;20423;-70
2021/12/11 12:05:11;;;;;;;1.67;1.07;;;7.90;99.90;;;;;;5014379;28;20403;-71
2021/12/11 12:07:37;;;;;;;0.70;0.50;;;8.00;99.90;;;;;;5014628;28;20409;-71
2021/12/11 12:10:29;;;;;;;1.00;0.67;;;7.90;99.90;;;;;;5014629;28;20259;-71
2021/12/11 12:12:55;;;;;;;0.70;0.60;;;7.80;99.90;;;;;;5014132;28;20816;-71
2021/12/11 12:15:30;;;;;;;1.17;1.07;;;7.80;99.90;;;;;;5014246;28;20454;-71
2021/12/11 12:17:57;;;;;;;0.70;0.60;;;7.80;99.90;;;;;;5014613;28;20168;-70
2021/12/11 12:20:24;;;;;;;0.73;0.60;;;7.90;99.90;;;;;;5013194;28;20403;-70
2021/12/11 12:22:52;;;;;;;0.70;0.50;;;7.80;99.90;;;;;;5012997;28;20431;-71
2021/12/11 12:25:18;;;;;;;0.70;0.50;;;7.80;99.90;;;;;;5013942;28;20513;-71
2021/12/11 12:27:45;;;;;;;0.70;0.50;;;7.80;99.90;;;;;;5014222;28;20494;-71
2021/12/11 12:30:29;;;;;;;2.10;2.00;;;7.80;99.90;;;;;;5014140;28;20411;-71
2021/12/11 12:32:56;;;;;;;0.70;0.60;;;7.80;99.90;;;;;;5014134;28;20431;-70
2021/12/11 12:35:24;;;;;;;0.90;0.70;;;7.90;99.90;;;;;;5013934;28;20455;-70
2021/12/11 12:37:50;;;;;;;1.10;1.10;;;7.80;99.90;;;;;;5014123;28;20407;-71
2021/12/11 12:40:27;;;;;;;0.80;0.60;;;7.80;99.90;;;;;;5014039;28;20753;-71
2021/12/11 12:42:56;;;;;;;0.87;0.87;;;7.80;99.90;;;;;;5013904;28;20426;-70
2021/12/11 12:45:36;;;;;;;2.50;1.33;;;7.80;99.90;;;;;;5013863;28;20486;-70
2021/12/11 12:48:07;;;;;;;0.70;0.50;;;7.80;99.90;;;;;;5013906;28;20403;-69
2021/12/11 12:50:41;;;;;;;0.73;0.73;;;7.90;99.90;;;;;;5013925;28;20418;-70
2021/12/11 12:53:07;;;;;;;0.80;0.70;;;8.00;99.90;;;;;;5013800;28;20411;-70
2021/12/11 12:55:41;;;;;;;0.70;0.50;;;8.00;99.90;;;;;;5012705;28;20439;-70
2021/12/11 12:58:12;;;;;;;1.47;0.87;;;8.30;99.90;;;;;;5013704;28;20460;-70
2021/12/11 13:00:42;;;;;;;0.80;0.80;;;8.90;99.90;;;;;;5013570;28;20419;-69
2021/12/11 13:03:18;;;;;;;0.70;0.50;;;9.00;99.90;;;;;;5017246;28;20411;-71
2021/12/11 13:05:52;;;;;;;0.93;0.83;;;9.10;99.90;;;;;;5017265;28;20438;-70
2021/12/11 13:08:26;;;;;;;0.70;0.50;;;9.20;99.90;;;;;;5014827;28;20442;-70
2021/12/11 13:11:02;;;;;;;0.70;0.60;;;9.10;99.90;;;;;;5013416;28;20505;-70
2021/12/11 13:13:29;;;;;;;0.80;0.70;;;9.50;99.90;;;;;;5013327;28;20446;-70
2021/12/11 13:16:19;;;;;;;0.70;0.50;;;9.90;99.90;;;;;;5013013;28;20403;-70
2021/12/11 13:18:51;;;;;;;2.20;1.60;;;10.00;99.90;;;;;;5013383;28;20892;-71
2021/12/11 13:21:22;;;;;;;0.70;0.50;;;10.00;99.90;;;;;;5013305;28;20502;-71
2021/12/11 13:23:51;;;;;;;0.70;0.50;;;10.00;99.90;;;;;;5013344;28;20494;-71
2021/12/11 13:26:21;;;;;;;1.93;1.83;;;10.10;99.90;;;;;;5012807;28;20813;-70
2021/12/11 13:28:54;;;;;;;0.70;0.50;;;10.00;99.90;;;;;;5011920;28;20412;-71